Time;durP1;ratioP1;P1;durP2;ratioP2;P2;SDS_P1;SDS_P2;PMS_P1;PMS_P2;Temp;Humidity;BMP_temperature;BMP_pressure;BME280_temperature;BME280_humidity;BME280_pressure;Samples;Min_cycle;Max_cycle;Signal;HPM_P1;HPM_P2
2021/08/09 00:00:25;;;;;;;1.40;1.30;;;;;;;14.41;79.90;100316.22;5048076;28;20299;-75
2021/08/09 00:02:51;;;;;;;2.50;1.50;;;;;;;14.42;79.51;100335.44;5047896;28;20718;-75
2021/08/09 00:05:18;;;;;;;2.60;1.40;;;;;;;14.49;79.36;100336.94;5048692;28;20278;-75
2021/08/09 00:07:44;;;;;;;2.27;1.60;;;;;;;14.52;80.05;100326.31;5048996;28;20206;-75
2021/08/09 00:10:11;;;;;;;1.40;1.30;;;;;;;14.51;79.91;100308.84;5049425;28;20205;-75
2021/08/09 00:12:37;;;;;;;1.60;1.30;;;;;;;14.52;79.64;100301.81;5047346;28;21033;-74
2021/08/09 00:15:06;;;;;;;2.30;1.23;;;;;;;14.52;79.63;100317.59;5048512;28;20699;-75
2021/08/09 00:17:33;;;;;;;1.70;1.50;;;;;;;14.53;79.28;100327.16;5048011;28;20208;-75
2021/08/09 00:20:00;;;;;;;2.77;1.63;;;;;;;14.56;79.81;100306.94;5049031;28;20622;-75
2021/08/09 00:22:26;;;;;;;3.30;1.70;;;;;;;14.54;79.62;100324.50;5047859;28;20232;-74
2021/08/09 00:24:53;;;;;;;1.87;1.70;;;;;;;14.60;79.39;100315.56;5047985;28;20216;-75
2021/08/09 00:27:19;;;;;;;1.67;1.57;;;;;;;14.58;80.54;100273.59;5048889;28;20229;-75
2021/08/09 00:29:46;;;;;;;2.03;1.53;;;;;;;14.58;80.53;100288.50;5048273;28;20216;-75
2021/08/09 00:32:14;;;;;;;2.03;1.60;;;;;;;14.60;80.07;100305.06;5047739;28;21379;-75
2021/08/09 00:34:40;;;;;;;1.33;1.20;;;;;;;14.63;80.60;100281.31;5048337;28;20258;-75
2021/08/09 00:37:07;;;;;;;2.53;1.37;;;;;;;14.65;79.29;100330.25;5048740;28;20220;-75
2021/08/09 00:39:33;;;;;;;2.03;1.73;;;;;;;14.64;78.96;100328.50;5048492;28;21025;-75
2021/08/09 00:42:00;;;;;;;1.70;1.60;;;;;;;14.63;79.20;100328.59;5047439;28;20225;-75
2021/08/09 00:44:26;;;;;;;2.47;1.30;;;;;;;14.67;80.20;100288.16;5047508;28;20213;-75
2021/08/09 00:46:53;;;;;;;1.97;1.40;;;;;;;14.69;79.84;100312.59;5048176;28;20294;-75
2021/08/09 00:49:21;;;;;;;2.50;1.40;;;;;;;14.67;79.56;100314.44;5048976;28;20216;-75
2021/08/09 00:51:47;;;;;;;2.20;1.50;;;;;;;14.70;79.88;100316.91;5048107;28;20209;-75
2021/08/09 00:54:14;;;;;;;1.87;1.47;;;;;;;14.59;80.17;100298.94;5047046;28;20254;-75
2021/08/09 00:56:41;;;;;;;1.50;1.40;;;;;;;14.60;80.06;100305.91;5048299;28;21038;-75
2021/08/09 00:59:08;;;;;;;2.33;1.73;;;;;;;14.55;80.58;100301.69;5048514;28;20324;-75
2021/08/09 01:01:35;;;;;;;1.67;1.57;;;;;;;14.56;80.10;100311.31;5047798;28;20214;-75
2021/08/09 01:04:03;;;;;;;2.47;1.37;;;;;;;14.57;80.03;100316.53;5047103;28;20225;-75
2021/08/09 01:06:31;;;;;;;2.23;1.67;;;;;;;14.61;80.47;100312.03;5048591;28;20225;-75
2021/08/09 01:09:06;;;;;;;2.27;1.50;;;;;;;14.59;79.79;100314.72;5044751;28;20204;-75
2021/08/09 01:11:39;;;;;;;2.47;1.63;;;;;;;14.61;79.71;100325.16;5044959;28;20220;-75
2021/08/09 01:14:13;;;;;;;1.40;1.33;;;;;;;14.61;80.52;100291.88;5044361;28;20718;-75
2021/08/09 01:16:42;;;;;;;2.03;1.50;;;;;;;14.61;79.96;100322.53;5043495;28;20213;-75
2021/08/09 01:19:32;;;;;;;2.70;1.60;;;;;;;14.60;79.92;100319.03;5044955;28;20209;-75
2021/08/09 01:22:07;;;;;;;1.50;1.40;;;;;;;14.65;80.52;100306.59;5044165;28;20248;-74
2021/08/09 01:24:39;;;;;;;1.97;1.47;;;;;;;14.69;80.24;100307.34;5045024;28;20894;-75
2021/08/09 01:27:20;;;;;;;2.70;1.67;;;;;;;14.66;80.33;100320.56;5044549;28;20217;-75
2021/08/09 01:29:46;;;;;;;3.47;1.43;;;;;;;14.70;80.66;100296.75;5044741;28;20917;-75
2021/08/09 01:32:16;;;;;;;2.53;1.60;;;;;;;14.74;80.18;100307.16;5043849;28;20237;-75
2021/08/09 01:34:43;;;;;;;3.03;1.60;;;;;;;14.71;79.96;100331.78;5044673;28;20209;-75
2021/08/09 01:37:10;;;;;;;2.93;1.20;;;;;;;14.74;80.64;100301.91;5043803;28;20267;-75
2021/08/09 01:39:39;;;;;;;1.77;1.40;;;;;;;14.72;80.31;100316.88;5045212;28;20205;-75
2021/08/09 01:42:06;;;;;;;2.53;1.63;;;;;;;14.77;80.15;100331.53;5043830;28;20216;-74
2021/08/09 01:44:35;;;;;;;3.17;1.70;;;;;;;14.73;80.05;100334.31;5044012;28;20209;-75
2021/08/09 01:47:02;;;;;;;2.20;1.40;;;;;;;14.77;80.08;100343.84;5043772;28;20228;-75
2021/08/09 01:49:30;;;;;;;1.83;1.67;;;;;;;14.76;80.17;100347.38;5044767;28;20209;-75
2021/08/09 01:51:57;;;;;;;3.13;1.90;;;;;;;14.78;80.22;100343.75;5043605;28;20734;-75
2021/08/09 01:54:24;;;;;;;2.37;1.63;;;;;;;14.78;80.07;100351.63;5043734;28;20282;-75
2021/08/09 01:56:51;;;;;;;2.27;1.20;;;;;;;14.75;79.80;100353.56;5044459;28;20201;-75
2021/08/09 01:59:17;;;;;;;2.17;1.60;;;;;;;14.74;79.53;100368.44;5044270;28;20271;-75
2021/08/09 02:01:45;;;;;;;2.33;1.90;;;;;;;14.75;80.03;100350.91;5043247;28;20216;-75
2021/08/09 02:04:11;;;;;;;1.40;1.30;;;;;;;14.75;79.80;100362.28;5043018;28;20229;-75
2021/08/09 02:06:38;;;;;;;4.60;1.57;;;;;;;14.74;80.72;100320.28;5043950;28;20233;-75
2021/08/09 02:09:06;;;;;;;2.80;1.93;;;;;;;14.72;81.63;100301.94;5043817;28;20207;-75
2021/08/09 02:11:40;;;;;;;2.77;1.77;;;;;;;14.73;81.21;100314.19;5043557;28;20206;-75
2021/08/09 02:14:10;;;;;;;1.87;1.70;;;;;;;14.76;80.39;100336.84;5042758;28;20246;-75
2021/08/09 02:16:41;;;;;;;2.30;1.63;;;;;;;14.74;80.78;100341.31;5042602;28;20245;-75
2021/08/09 02:19:15;;;;;;;2.47;1.60;;;;;;;14.73;81.49;100300.16;5043615;28;20641;-75
2021/08/09 02:21:46;;;;;;;4.93;1.77;;;;;;;14.73;81.94;100287.03;5044429;28;20208;-75
2021/08/09 02:24:19;;;;;;;1.63;1.40;;;;;;;14.72;80.86;100311.59;5042324;28;20253;-75
2021/08/09 02:26:48;;;;;;;1.63;1.43;;;;;;;14.64;82.16;100280.38;5043607;28;20402;-75
2021/08/09 02:29:19;;;;;;;1.47;1.37;;;;;;;14.68;82.20;100284.59;5043703;28;20205;-75
2021/08/09 02:31:47;;;;;;;4.10;1.90;;;;;;;14.63;81.46;100308.44;5043411;28;20702;-74
2021/08/09 02:34:18;;;;;;;2.07;1.80;;;;;;;14.67;81.25;100306.53;5041508;28;20225;-75
2021/08/09 02:36:45;;;;;;;2.30;1.53;;;;;;;14.73;81.05;100319.44;5043868;28;20198;-75
2021/08/09 02:39:13;;;;;;;1.60;1.50;;;;;;;14.74;81.58;100305.38;5043237;28;20204;-75
2021/08/09 02:41:40;;;;;;;1.80;1.53;;;;;;;14.76;80.92;100334.22;5043568;28;20685;-75
2021/08/09 02:44:08;;;;;;;3.10;1.30;;;;;;;14.72;79.78;100370.25;5042465;28;20229;-75
2021/08/09 02:46:35;;;;;;;2.50;1.87;;;;;;;14.75;80.65;100346.50;5042903;28;21137;-75
2021/08/09 02:49:02;;;;;;;2.10;1.67;;;;;;;14.74;80.57;100338.69;5043576;28;20216;-75
2021/08/09 02:51:32;;;;;;;1.70;1.60;;;;;;;14.73;80.23;100355.34;5042987;28;20215;-75
2021/08/09 02:53:59;;;;;;;4.70;1.53;;;;;;;14.69;81.23;100325.72;5042100;28;20307;-75
2021/08/09 02:56:27;;;;;;;2.27;1.50;;;;;;;14.72;80.52;100336.09;5042794;28;20213;-75
2021/08/09 02:58:54;;;;;;;2.10;1.90;;;;;;;14.77;80.68;100346.47;5042604;28;20266;-75
2021/08/09 03:01:21;;;;;;;1.73;1.40;;;;;;;14.74;80.96;100341.31;5042477;28;20865;-75
2021/08/09 03:03:54;;;;;;;1.60;1.50;;;;;;;14.70;81.90;100314.28;5042421;28;20225;-75
2021/08/09 03:06:21;;;;;;;1.33;1.23;;;;;;;14.72;81.83;100311.59;5043154;28;21209;-75
2021/08/09 03:08:49;;;;;;;2.43;2.23;;;;;;;14.70;82.25;100298.53;5043131;28;20310;-75
2021/08/09 03:11:16;;;;;;;1.50;1.40;;;;;;;14.65;82.14;100303.97;5042709;28;20220;-75
2021/08/09 03:13:46;;;;;;;1.60;1.50;;;;;;;14.64;81.78;100312.75;5041908;28;20230;-75
2021/08/09 03:16:12;;;;;;;3.37;1.60;;;;;;;14.60;82.66;100292.75;5041767;28;20197;-75
2021/08/09 03:18:39;;;;;;;1.50;1.40;;;;;;;14.60;82.36;100290.13;5041890;28;20763;-75
2021/08/09 03:21:06;;;;;;;2.47;1.90;;;;;;;14.58;81.12;100335.78;5043390;28;20270;-75
2021/08/09 03:23:33;;;;;;;2.70;1.60;;;;;;;14.61;81.03;100341.78;5041434;28;20263;-74
2021/08/09 03:26:01;;;;;;;5.13;1.57;;;;;;;14.62;81.48;100329.50;5042213;28;20205;-75
2021/08/09 03:28:27;;;;;;;3.20;1.40;;;;;;;14.57;82.56;100302.53;5041973;28;20786;-75
2021/08/09 03:30:54;;;;;;;2.27;2.00;;;;;;;14.56;82.15;100306.06;5042084;28;20243;-75
2021/08/09 03:33:20;;;;;;;1.53;1.43;;;;;;;14.50;83.18;100273.00;5041616;28;20236;-75
2021/08/09 03:35:47;;;;;;;2.10;1.50;;;;;;;14.48;82.64;100290.56;5041723;28;20205;-75
2021/08/09 03:38:13;;;;;;;3.87;1.97;;;;;;;14.50;83.38;100281.72;5042905;28;20792;-75
2021/08/09 03:40:40;;;;;;;2.63;1.50;;;;;;;14.48;82.68;100296.66;5042023;28;20683;-75
2021/08/09 03:43:07;;;;;;;2.00;1.80;;;;;;;14.44;82.65;100284.56;5041612;28;20262;-75
2021/08/09 03:45:34;;;;;;;4.43;1.53;;;;;;;14.45;82.92;100299.44;5041957;28;20215;-74
2021/08/09 03:48:00;;;;;;;2.30;1.60;;;;;;;14.43;82.51;100300.38;5042699;28;20221;-75
2021/08/09 03:50:27;;;;;;;2.50;1.60;;;;;;;14.41;83.51;100292.59;5042661;28;20277;-75
2021/08/09 03:52:55;;;;;;;2.30;1.70;;;;;;;14.37;84.15;100267.34;5041104;28;20231;-75
2021/08/09 03:55:23;;;;;;;1.43;1.30;;;;;;;14.34;84.85;100258.72;5042546;28;20204;-75
2021/08/09 03:57:49;;;;;;;1.73;1.57;;;;;;;14.29;84.13;100267.63;5042304;28;20208;-74
2021/08/09 04:00:17;;;;;;;1.80;1.70;;;;;;;14.23;84.87;100262.63;5042527;28;20205;-75
2021/08/09 04:02:44;;;;;;;1.80;1.70;;;;;;;14.27;84.36;100276.47;5040781;28;20266;-75
2021/08/09 04:05:10;;;;;;;2.30;1.63;;;;;;;14.25;84.39;100260.78;5042419;28;20744;-75
2021/08/09 04:07:38;;;;;;;2.07;1.60;;;;;;;14.22;85.40;100239.03;5041610;28;20415;-75
2021/08/09 04:10:06;;;;;;;1.70;1.60;;;;;;;14.19;85.49;100229.50;5042965;28;21159;-75
2021/08/09 04:12:32;;;;;;;7.17;2.40;;;;;;;14.18;86.13;100221.69;5040772;28;20236;-75
2021/08/09 04:14:59;;;;;;;1.83;1.73;;;;;;;14.22;85.14;100244.28;5041971;28;20212;-75
2021/08/09 04:17:27;;;;;;;6.60;1.70;;;;;;;14.19;86.09;100216.38;5040686;28;20213;-75
2021/08/09 04:19:53;;;;;;;2.97;1.50;;;;;;;14.22;86.51;100207.53;5040423;28;20581;-75
2021/08/09 04:22:20;;;;;;;3.83;2.30;;;;;;;14.23;86.50;100210.09;5040860;28;20242;-75
2021/08/09 04:24:46;;;;;;;1.97;1.53;;;;;;;14.23;86.56;100202.22;5040086;28;20255;-75
2021/08/09 04:27:12;;;;;;;3.10;2.03;;;;;;;14.23;86.35;100215.34;5041408;28;20365;-75
2021/08/09 04:29:39;;;;;;;2.03;1.87;;;;;;;14.23;87.13;100202.22;5041089;28;20221;-75
2021/08/09 04:32:13;;;;;;;3.20;2.07;;;;;;;14.23;87.02;100198.72;5040428;28;20213;-75
2021/08/09 04:34:40;;;;;;;2.63;1.67;;;;;;;14.25;87.15;100204.78;5041833;28;20245;-74
2021/08/09 04:37:07;;;;;;;1.80;1.70;;;;;;;14.26;86.79;100217.84;5040887;28;20629;-75
2021/08/09 04:39:34;;;;;;;2.77;1.83;;;;;;;14.26;86.75;100224.88;5041164;28;20245;-75
2021/08/09 04:42:00;;;;;;;2.73;1.73;;;;;;;14.29;86.88;100240.50;5039809;28;20269;-75
2021/08/09 04:44:27;;;;;;;2.17;1.73;;;;;;;14.34;87.06;100224.59;5043579;28;20220;-75
2021/08/09 04:46:55;;;;;;;2.70;2.03;;;;;;;14.34;87.54;100216.72;5045042;28;20212;-75
2021/08/09 04:49:21;;;;;;;8.70;2.23;;;;;;;14.37;86.03;100234.97;5044767;28;20292;-75
2021/08/09 04:51:49;;;;;;;2.37;2.03;;;;;;;14.42;84.70;100289.03;5045576;28;20220;-75
2021/08/09 04:54:15;;;;;;;2.33;1.90;;;;;;;14.44;85.94;100260.09;5044787;28;20231;-75
2021/08/09 04:56:42;;;;;;;2.37;1.80;;;;;;;14.46;85.25;100261.72;5045080;28;20215;-75
2021/08/09 04:59:08;;;;;;;2.67;1.90;;;;;;;14.49;86.10;100266.03;5045104;28;20617;-75
2021/08/09 05:01:35;;;;;;;2.17;1.80;;;;;;;14.48;86.43;100238.91;5045366;28;20211;-75
2021/08/09 05:04:02;;;;;;;2.40;1.80;;;;;;;14.49;85.81;100250.28;5043768;28;20589;-75
2021/08/09 05:06:29;;;;;;;2.17;1.80;;;;;;;14.45;85.52;100260.03;5045728;28;20220;-75
2021/08/09 05:08:57;;;;;;;2.03;1.83;;;;;;;14.42;84.92;100296.91;5045137;28;20229;-75
2021/08/09 05:11:23;;;;;;;2.13;1.80;;;;;;;14.46;85.53;100281.91;5045188;28;21132;-75
2021/08/09 05:13:50;;;;;;;4.97;2.10;;;;;;;14.49;85.50;100266.03;5043258;28;20235;-75
2021/08/09 05:16:16;;;;;;;2.47;1.73;;;;;;;14.53;85.49;100279.88;5045135;28;20783;-75
2021/08/09 05:18:43;;;;;;;3.13;1.83;;;;;;;14.57;85.17;100299.91;5044515;28;20297;-74
2021/08/09 05:21:09;;;;;;;1.77;1.63;;;;;;;14.56;86.32;100257.03;5044483;28;20208;-75
2021/08/09 05:23:36;;;;;;;2.43;1.70;;;;;;;14.52;85.41;100275.56;5044047;28;20236;-75
2021/08/09 05:26:03;;;;;;;1.90;1.77;;;;;;;14.63;85.41;100282.16;5044737;28;20247;-74
2021/08/09 05:28:30;;;;;;;2.10;1.90;;;;;;;14.65;86.51;100251.41;5044009;28;20236;-75
2021/08/09 05:30:57;;;;;;;1.70;1.60;;;;;;;14.70;85.35;100286.22;5044781;28;20208;-75
2021/08/09 05:33:23;;;;;;;2.13;1.63;;;;;;;14.78;85.92;100272.81;5043649;28;20850;-75
2021/08/09 05:35:50;;;;;;;1.63;1.53;;;;;;;14.84;85.72;100272.56;5044822;28;20261;-74
2021/08/09 05:38:16;;;;;;;1.93;1.83;;;;;;;14.87;86.14;100267.19;5044453;28;20221;-75
2021/08/09 05:40:43;;;;;;;3.67;1.93;;;;;;;14.91;85.33;100286.34;5044532;28;20219;-75
2021/08/09 05:43:12;;;;;;;4.13;1.73;;;;;;;14.90;86.23;100255.69;5043048;28;20227;-75
2021/08/09 05:45:38;;;;;;;2.33;1.60;;;;;;;14.96;85.89;100262.50;5043765;28;20209;-74
2021/08/09 05:48:05;;;;;;;1.83;1.67;;;;;;;15.00;85.51;100287.72;5044597;28;20639;-75
2021/08/09 05:50:32;;;;;;;2.67;1.53;;;;;;;15.03;85.29;100303.41;5043942;28;20207;-75
2021/08/09 05:52:58;;;;;;;5.33;1.70;;;;;;;15.08;84.49;100304.06;5044049;28;20339;-75
2021/08/09 05:55:26;;;;;;;5.30;2.03;;;;;;;15.10;84.15;100331.13;5042889;28;20617;-75
2021/08/09 05:57:52;;;;;;;1.70;1.60;;;;;;;15.17;82.97;100374.69;5043919;28;20204;-76
2021/08/09 06:00:20;;;;;;;3.23;1.80;;;;;;;15.21;84.62;100333.34;5043970;28;20534;-76
2021/08/09 06:02:46;;;;;;;2.43;1.83;;;;;;;15.22;83.11;100361.34;5042656;28;20241;-75
2021/08/09 06:05:13;;;;;;;1.80;1.60;;;;;;;15.10;81.42;100438.94;5044508;28;20216;-75
2021/08/09 06:07:40;;;;;;;2.73;1.90;;;;;;;15.20;82.39;100398.25;5044266;28;20251;-75
2021/08/09 06:10:08;;;;;;;2.67;1.87;;;;;;;15.33;82.86;100384.63;5044734;28;20207;-75
2021/08/09 06:12:36;;;;;;;3.17;1.80;;;;;;;15.37;83.50;100352.84;5042829;28;20282;-75
2021/08/09 06:15:03;;;;;;;3.67;1.90;;;;;;;15.42;86.04;100277.25;5044120;28;20291;-75
2021/08/09 06:17:31;;;;;;;2.20;1.47;;;;;;;15.48;85.25;100305.94;5044291;28;20208;-76
2021/08/09 06:19:57;;;;;;;2.00;1.70;;;;;;;15.52;84.51;100309.31;5042590;28;20202;-75
2021/08/09 06:22:24;;;;;;;1.97;1.50;;;;;;;15.50;86.08;100287.47;5043410;28;20298;-75
2021/08/09 06:24:50;;;;;;;2.47;1.67;;;;;;;15.54;85.95;100270.63;5043358;28;20558;-75
2021/08/09 06:27:17;;;;;;;2.17;1.87;;;;;;;15.60;83.33;100353.69;5043262;28;20218;-76
2021/08/09 06:29:43;;;;;;;2.47;1.57;;;;;;;15.59;80.45;100463.34;5043044;28;20679;-75
2021/08/09 06:32:10;;;;;;;1.50;1.40;;;;;;;15.59;82.27;100423.03;5042835;28;20243;-75
2021/08/09 06:34:38;;;;;;;4.17;1.73;;;;;;;15.57;82.59;100396.78;5043615;28;20217;-75
2021/08/09 06:37:04;;;;;;;2.00;1.57;;;;;;;15.60;81.94;100419.47;5043839;28;20212;-75
2021/08/09 06:39:31;;;;;;;2.70;1.73;;;;;;;15.58;81.45;100445.88;5043654;28;20205;-76
2021/08/09 06:42:02;;;;;;;3.80;1.70;;;;;;;15.61;80.17;100500.13;5043151;28;20640;-76
2021/08/09 06:44:29;;;;;;;2.07;1.47;;;;;;;15.64;79.61;100526.34;5044011;28;20210;-75
2021/08/09 06:46:55;;;;;;;1.50;1.40;;;;;;;15.65;81.07;100457.84;5043112;28;20683;-75
2021/08/09 06:49:23;;;;;;;2.33;1.50;;;;;;;15.71;81.32;100469.06;5042564;28;20844;-75
2021/08/09 06:51:50;;;;;;;2.47;1.73;;;;;;;15.71;79.28;100535.69;5043135;28;20292;-75
2021/08/09 06:54:19;;;;;;;3.07;1.73;;;;;;;15.72;80.19;100502.31;5042578;28;20253;-75
2021/08/09 06:56:46;;;;;;;2.00;1.50;;;;;;;15.74;81.72;100468.94;5043299;28;20207;-75
2021/08/09 06:59:12;;;;;;;1.50;1.40;;;;;;;15.78;80.38;100510.91;5041554;28;20209;-75
2021/08/09 07:01:39;;;;;;;3.43;1.77;;;;;;;15.82;81.18;100490.59;5041515;28;20675;-75
2021/08/09 07:04:05;;;;;;;3.60;1.60;;;;;;;15.95;79.32;100544.44;5036591;28;20229;-75
2021/08/09 07:06:32;;;;;;;2.23;1.43;;;;;;;15.98;77.97;100577.69;5040839;28;20239;-75
2021/08/09 07:09:02;;;;;;;4.67;1.83;;;;;;;16.11;78.71;100571.00;5042870;28;20225;-75
2021/08/09 07:11:29;;;;;;;2.07;1.37;;;;;;;16.17;78.54;100583.09;5043055;28;20213;-78
2021/08/09 07:13:55;;;;;;;1.63;1.33;;;;;;;16.33;79.39;100546.44;5041163;28;20229;-75
2021/08/09 07:16:24;;;;;;;2.50;1.50;;;;;;;16.38;76.46;100653.34;5042196;28;20205;-76
2021/08/09 07:18:51;;;;;;;2.33;1.60;;;;;;;16.49;78.65;100597.63;5041475;28;20274;-78
2021/08/09 07:21:18;;;;;;;3.47;1.47;;;;;;;16.54;77.09;100640.44;5048610;28;20209;-77
2021/08/09 07:23:44;;;;;;;1.87;1.40;;;;;;;16.70;78.19;100582.66;5044392;28;20233;-77
2021/08/09 07:26:12;;;;;;;2.23;1.50;;;;;;;16.87;76.63;100638.22;5042781;28;20228;-77
2021/08/09 07:28:39;;;;;;;1.30;1.20;;;;;;;16.90;73.92;100740.06;5043302;28;20232;-76
2021/08/09 07:31:05;;;;;;;1.50;1.40;;;;;;;17.02;74.16;100729.00;5041591;28;20198;-75
2021/08/09 07:33:32;;;;;;;1.87;1.50;;;;;;;17.13;75.19;100669.69;5040077;28;20240;-75
2021/08/09 07:36:00;;;;;;;3.63;1.50;;;;;;;17.21;73.95;100736.19;5040958;28;21154;-74
2021/08/09 07:38:27;;;;;;;2.10;1.73;;;;;;;17.28;74.23;100713.88;5041753;28;20314;-74
2021/08/09 07:40:53;;;;;;;2.43;1.07;;;;;;;17.31;73.78;100741.94;5041189;28;20220;-75
2021/08/09 07:43:21;;;;;;;1.60;1.20;;;;;;;17.36;73.68;100751.38;5041730;28;20225;-75
2021/08/09 07:45:47;;;;;;;2.67;1.37;;;;;;;17.30;73.03;100769.22;5042136;28;20205;-75
2021/08/09 07:48:14;;;;;;;1.60;1.50;;;;;;;17.37;73.92;100744.31;5042234;28;20224;-75
2021/08/09 07:50:42;;;;;;;2.33;1.40;;;;;;;17.43;75.23;100684.19;5042124;28;20206;-75
2021/08/09 07:53:08;;;;;;;1.50;1.40;;;;;;;17.55;74.02;100734.75;5040996;28;20228;-75
2021/08/09 07:55:35;;;;;;;2.70;1.43;;;;;;;17.64;73.81;100745.75;5041482;28;20210;-75
2021/08/09 07:58:01;;;;;;;2.67;1.43;;;;;;;17.75;73.16;100761.13;5042411;28;20198;-75
2021/08/09 08:00:29;;;;;;;2.00;1.30;;;;;;;17.64;70.95;100842.56;5041196;28;20210;-75
2021/08/09 08:02:55;;;;;;;1.50;1.17;;;;;;;17.59;71.66;100840.13;5041073;28;20225;-75
2021/08/09 08:05:22;;;;;;;2.03;1.40;;;;;;;17.77;72.31;100809.44;5041878;28;20259;-75
2021/08/09 08:07:48;;;;;;;2.10;1.47;;;;;;;17.85;71.65;100825.84;5041244;28;20205;-75
2021/08/09 08:10:15;;;;;;;1.67;1.30;;;;;;;17.91;70.97;100853.78;5041809;28;20207;-75
2021/08/09 08:12:41;;;;;;;2.37;1.43;;;;;;;17.97;71.55;100850.03;5041257;28;20271;-75
2021/08/09 08:15:08;;;;;;;2.07;1.33;;;;;;;17.90;71.20;100864.41;5042550;28;20201;-75
2021/08/09 08:17:36;;;;;;;2.17;1.20;;;;;;;17.98;71.37;100841.19;5042881;28;20295;-75
2021/08/09 08:20:04;;;;;;;2.80;1.53;;;;;;;17.89;69.67;100902.31;5043468;28;20239;-74
2021/08/09 08:22:30;;;;;;;1.73;1.50;;;;;;;17.90;71.08;100860.00;5044865;28;20225;-75
2021/08/09 08:24:57;;;;;;;1.40;1.23;;;;;;;18.02;71.94;100822.47;5045717;28;20201;-75
2021/08/09 08:27:23;;;;;;;1.70;1.40;;;;;;;18.05;69.59;100893.66;5045742;28;20287;-75
2021/08/09 08:29:49;;;;;;;1.87;1.23;;;;;;;18.19;70.56;100881.66;5045536;28;20305;-75
2021/08/09 08:32:16;;;;;;;2.00;1.40;;;;;;;18.29;71.43;100855.69;5044695;28;20226;-75
2021/08/09 08:34:44;;;;;;;2.07;1.37;;;;;;;18.30;70.06;100904.97;5045388;28;20276;-75
2021/08/09 08:37:10;;;;;;;2.87;1.70;;;;;;;18.37;70.16;100904.63;5045608;28;20237;-75
2021/08/09 08:39:37;;;;;;;2.57;1.50;;;;;;;18.43;69.43;100929.94;5045859;28;20257;-75
2021/08/09 08:42:03;;;;;;;1.67;1.57;;;;;;;18.34;68.13;100975.28;5044991;28;20209;-75
2021/08/09 08:44:30;;;;;;;2.03;1.83;;;;;;;18.49;67.74;100987.81;5045311;28;20550;-75
2021/08/09 08:46:56;;;;;;;2.27;1.40;;;;;;;18.57;68.33;100988.38;5044901;28;20303;-75
2021/08/09 08:49:24;;;;;;;3.17;1.57;;;;;;;18.46;66.18;101035.56;5045425;28;20227;-75
2021/08/09 08:51:52;;;;;;;3.10;1.40;;;;;;;18.43;67.04;101039.19;5045036;28;20292;-74
2021/08/09 08:54:19;;;;;;;2.57;1.33;;;;;;;18.51;67.68;100999.19;5044069;28;21383;-75
2021/08/09 08:56:47;;;;;;;1.53;1.33;;;;;;;18.39;67.26;100997.06;5044888;28;20683;-75
2021/08/09 08:59:15;;;;;;;1.93;1.20;;;;;;;18.56;68.72;100967.28;5044989;28;20624;-75
2021/08/09 09:01:43;;;;;;;1.50;1.27;;;;;;;18.53;68.85;100952.41;5044962;28;20271;-75
2021/08/09 09:04:25;;;;;;;1.87;1.03;;;;;;;18.63;68.23;100964.31;5044705;28;20244;-75
2021/08/09 09:07:01;;;;;;;3.70;1.40;;;;;;;18.70;68.04;100985.19;5045102;28;20214;-75
2021/08/09 09:09:29;;;;;;;2.57;1.43;;;;;;;18.65;66.61;101040.91;5045022;28;20230;-74
2021/08/09 09:11:56;;;;;;;3.07;1.50;;;;;;;18.61;67.21;101004.94;5044233;28;20202;-75
2021/08/09 09:14:28;;;;;;;3.10;1.30;;;;;;;18.63;68.11;100993.38;5044718;28;20221;-75
2021/08/09 09:16:55;;;;;;;2.90;1.53;;;;;;;18.70;69.72;100940.22;5045154;28;20207;-75
2021/08/09 09:19:34;;;;;;;2.07;1.77;;;;;;;18.76;69.29;100932.84;5043547;28;20211;-75
2021/08/09 09:22:04;;;;;;;2.47;1.80;;;;;;;18.77;68.78;100962.81;5044130;28;20292;-75
2021/08/09 09:24:31;;;;;;;3.33;1.33;;;;;;;18.57;68.15;100987.50;5043968;28;20680;-75
2021/08/09 09:26:59;;;;;;;2.70;1.53;;;;;;;18.61;70.56;100930.91;5044754;28;20203;-75
2021/08/09 09:29:27;;;;;;;2.17;1.97;;;;;;;18.55;69.64;100918.84;5043859;28;20234;-75
2021/08/09 09:31:54;;;;;;;2.60;1.40;;;;;;;18.55;68.28;100944.41;5043915;28;20789;-75
2021/08/09 09:34:22;;;;;;;2.27;1.60;;;;;;;18.48;67.89;100996.69;5044184;28;20674;-74
2021/08/09 09:36:51;;;;;;;4.50;2.20;;;;;;;18.52;69.06;100974.47;5044682;28;20208;-75
2021/08/09 09:39:33;;;;;;;2.07;1.50;;;;;;;18.35;69.45;100963.75;5044278;28;20690;-75
2021/08/09 09:42:03;;;;;;;1.97;1.40;;;;;;;18.49;69.17;100966.66;5043380;28;20217;-75
2021/08/09 09:44:32;;;;;;;2.17;1.40;;;;;;;18.53;67.35;101037.03;5044581;28;20641;-75
2021/08/09 09:47:22;;;;;;;2.20;1.33;;;;;;;18.69;69.15;100962.28;5044501;28;20209;-75
2021/08/09 09:49:50;;;;;;;1.97;1.47;;;;;;;18.77;68.63;100991.91;5044272;28;20218;-75
2021/08/09 09:52:34;;;;;;;2.53;1.30;;;;;;;18.82;68.78;100974.94;5043867;28;20218;-75
2021/08/09 09:55:04;;;;;;;3.90;1.67;;;;;;;18.67;67.48;101041.69;5044102;28;20213;-75
2021/08/09 09:57:31;;;;;;;3.20;1.43;;;;;;;18.80;67.87;100994.44;5043391;28;20210;-75
2021/08/09 09:59:58;;;;;;;2.17;1.47;;;;;;;18.89;68.38;100958.78;5044103;28;20203;-75
2021/08/09 10:02:25;;;;;;;1.97;1.33;;;;;;;18.88;67.73;101018.78;5043151;28;20230;-75
2021/08/09 10:04:52;;;;;;;2.00;1.40;;;;;;;18.85;65.27;101085.06;5044049;28;20222;-75
2021/08/09 10:07:22;;;;;;;3.03;1.70;;;;;;;18.92;66.92;101052.09;5044353;28;20211;-75
2021/08/09 10:09:50;;;;;;;5.07;1.40;;;;;;;18.97;67.37;101028.13;5043730;28;20230;-75
2021/08/09 10:12:19;;;;;;;2.50;1.60;;;;;;;18.98;67.22;101043.03;5042360;28;20231;-75
2021/08/09 10:14:48;;;;;;;1.87;1.40;;;;;;;19.12;67.30;101021.25;5043740;28;20210;-75
2021/08/09 10:17:16;;;;;;;2.73;1.60;;;;;;;19.09;64.19;101143.09;5044194;28;20291;-75
2021/08/09 10:19:45;;;;;;;2.43;1.70;;;;;;;19.08;65.57;101122.88;5042657;28;20257;-75
2021/08/09 10:22:12;;;;;;;2.40;1.20;;;;;;;19.09;64.54;101136.06;5042828;28;20666;-75
2021/08/09 10:24:39;;;;;;;2.43;1.63;;;;;;;19.23;65.44;101096.59;5043587;28;20211;-75
2021/08/09 10:27:06;;;;;;;1.27;1.17;;;;;;;19.09;64.03;101181.03;5043264;28;20211;-74
2021/08/09 10:29:34;;;;;;;1.77;1.30;;;;;;;19.09;64.58;101143.09;5043465;28;20233;-75
2021/08/09 10:32:21;;;;;;;1.57;1.30;;;;;;;19.26;64.40;101132.66;5042210;28;20206;-75
2021/08/09 10:34:47;;;;;;;2.47;1.40;;;;;;;19.45;64.78;101128.25;5043381;28;20212;-74
2021/08/09 10:37:15;;;;;;;2.07;1.30;;;;;;;19.56;64.35;101156.03;5043352;28;20211;-75
2021/08/09 10:39:55;;;;;;;1.80;1.17;;;;;;;19.73;62.48;101195.06;5043392;28;20230;-75
2021/08/09 10:42:30;;;;;;;3.17;1.20;;;;;;;20.08;62.88;101200.53;5042000;28;20230;-75
2021/08/09 10:44:58;;;;;;;1.67;1.30;;;;;;;20.27;63.82;101143.06;5042864;28;20240;-75
2021/08/09 10:47:54;;;;;;;1.40;1.10;;;;;;;20.21;60.15;101282.06;5043196;28;20212;-75
2021/08/09 10:50:47;;;;;;;1.87;1.40;;;;;;;20.03;60.69;101304.97;5043388;28;20228;-75
2021/08/09 10:53:47;;;;;;;3.20;1.40;;;;;;;20.19;61.34;101260.06;5041565;28;20614;-75
2021/08/09 10:56:45;;;;;;;2.93;1.33;;;;;;;20.49;62.45;101221.56;5042370;28;20692;-75
2021/08/09 10:59:45;;;;;;;1.47;1.20;;;;;;;20.82;60.38;101277.50;5042771;28;20200;-75
2021/08/09 11:02:18;;;;;;;2.50;1.30;;;;;;;20.92;57.63;101381.44;5042145;28;20569;-77
2021/08/09 11:04:45;;;;;;;2.87;1.27;;;;;;;21.01;57.13;101410.19;5046437;28;20212;-78
2021/08/09 11:07:18;;;;;;;1.53;1.43;;;;;;;21.05;57.68;101382.56;5045364;28;20675;-77
2021/08/09 11:09:46;;;;;;;3.00;1.33;;;;;;;21.33;59.32;101347.56;5046039;28;20232;-78
2021/08/09 11:12:18;;;;;;;3.07;1.20;;;;;;;21.48;56.54;101411.53;5042438;28;20228;-76
2021/08/09 11:15:14;;;;;;;2.50;1.33;;;;;;;21.41;57.54;101385.22;5043262;28;20213;-76
2021/08/09 11:17:56;;;;;;;1.73;1.20;;;;;;;21.51;56.32;101430.84;5042496;28;20216;-76
2021/08/09 11:20:25;;;;;;;1.47;1.03;;;;;;;21.44;55.46;101481.69;5042152;28;20621;-76
2021/08/09 11:23:05;;;;;;;1.33;1.00;;;;;;;21.44;57.22;101426.75;5041212;28;20224;-76
2021/08/09 11:25:35;;;;;;;1.67;1.20;;;;;;;21.50;56.99;101425.59;5042956;28;20228;-75
2021/08/09 11:28:11;;;;;;;0.97;0.80;;;;;;;21.23;55.80;101487.06;5042591;28;20201;-75
2021/08/09 11:30:43;;;;;;;2.20;1.40;;;;;;;21.46;57.72;101405.44;5042569;28;20220;-75